createdAt,value
2017-09-16T00:01:02.388Z,74.70
2017-09-16T00:03:30.791Z,74.40
2017-09-16T00:05:58.331Z,74.40
2017-09-16T00:08:25.878Z,74.90
2017-09-16T00:10:53.455Z,74.60
2017-09-16T00:13:20.983Z,75.00
2017-09-16T00:15:48.507Z,74.20
2017-09-16T00:18:16.468Z,74.50
2017-09-16T00:20:44.005Z,73.90
2017-09-16T00:23:11.567Z,73.80
2017-09-16T00:25:39.151Z,73.80
2017-09-16T00:28:06.688Z,74.20
2017-09-16T00:30:34.226Z,74.30
2017-09-16T00:33:01.787Z,74.50
2017-09-16T00:35:29.319Z,74.40
2017-09-16T00:37:57.650Z,76.20
2017-09-16T00:40:25.215Z,75.50
2017-09-16T00:42:52.756Z,75.10
2017-09-16T00:45:20.463Z,75.80
2017-09-16T00:47:48.847Z,76.50
2017-09-16T00:50:17.260Z,76.20
2017-09-16T00:52:44.791Z,76.10
2017-09-16T00:55:12.355Z,76.80
2017-09-16T00:57:40.664Z,77.10
2017-09-16T01:00:08.194Z,77.10
2017-09-16T01:02:36.520Z,77.60
2017-09-16T01:05:04.051Z,77.50
2017-09-16T01:07:31.584Z,78.60
2017-09-16T01:09:59.203Z,78.80
2017-09-16T01:12:26.738Z,79.20
2017-09-16T01:14:54.271Z,78.30
2017-09-16T01:17:22.603Z,79.40
2017-09-16T01:19:50.140Z,79.30
2017-09-16T01:22:17.680Z,80.20
2017-09-16T01:24:45.239Z,79.80
2017-09-16T01:27:14.557Z,79.00
2017-09-16T01:29:42.087Z,78.90
2017-09-16T01:32:09.688Z,79.10
2017-09-16T01:34:37.223Z,79.00
2017-09-16T01:37:04.763Z,79.30
2017-09-16T01:39:33.083Z,77.70
2017-09-16T01:42:00.623Z,77.60
2017-09-16T01:44:28.157Z,78.80
2017-09-16T01:46:56.254Z,77.40
2017-09-16T01:49:23.795Z,78.40
2017-09-16T01:51:52.092Z,78.20
2017-09-16T01:54:19.676Z,78.20
2017-09-16T01:56:47.207Z,78.20
2017-09-16T01:59:16.421Z,79.20
2017-09-16T02:01:43.976Z,79.50
2017-09-16T02:04:11.507Z,78.70
2017-09-16T02:06:39.035Z,78.70
2017-09-16T02:09:06.605Z,78.50
2017-09-16T02:11:34.144Z,78.50
2017-09-16T02:14:01.671Z,78.80
2017-09-16T02:16:29.295Z,78.30
2017-09-16T02:18:56.828Z,78.60
2017-09-16T02:21:24.359Z,78.60
2017-09-16T02:23:51.919Z,78.40
2017-09-16T02:26:19.456Z,79.10
2017-09-16T02:28:46.983Z,79.70
2017-09-16T02:31:26.103Z,80.10
2017-09-16T02:37:33.363Z,81.00
2017-09-16T02:40:00.907Z,81.90
2017-09-16T02:42:28.444Z,82.40
2017-09-16T02:44:56.005Z,82.50
2017-09-16T02:47:23.994Z,82.80
2017-09-16T02:49:51.527Z,82.50
2017-09-16T02:52:19.106Z,82.60
2017-09-16T02:54:46.639Z,82.50
2017-09-16T02:57:16.311Z,82.60
2017-09-16T02:59:44.675Z,82.80
2017-09-16T03:02:12.210Z,82.80
2017-09-16T03:04:40.521Z,82.80
2017-09-16T03:07:08.069Z,82.80
2017-09-16T03:09:35.727Z,83.20
2017-09-16T03:12:03.276Z,83.10
2017-09-16T03:14:31.612Z,83.00
2017-09-16T03:16:59.151Z,83.00
2017-09-16T03:19:26.684Z,82.60
2017-09-16T03:21:54.316Z,82.90
2017-09-16T03:24:21.843Z,82.70
2017-09-16T03:26:49.371Z,81.70
2017-09-16T03:29:16.931Z,81.50
2017-09-16T03:31:44.475Z,81.30
2017-09-16T03:34:13.702Z,80.90
2017-09-16T03:36:42.039Z,81.80
2017-09-16T03:39:09.571Z,81.60
2017-09-16T03:41:37.107Z,81.80
2017-09-16T03:44:04.701Z,81.60
2017-09-16T03:46:32.240Z,81.90
2017-09-16T03:49:00.095Z,81.70
2017-09-16T03:51:27.659Z,81.10
2017-09-16T03:53:55.192Z,82.00
2017-09-16T03:56:22.734Z,81.80
2017-09-16T03:58:51.067Z,81.80
2017-09-16T04:01:30.248Z,81.70
2017-09-16T04:03:58.595Z,81.30
2017-09-16T04:06:26.135Z,81.20
2017-09-16T04:08:53.686Z,81.50
2017-09-16T04:11:21.244Z,82.30
2017-09-16T04:13:48.774Z,82.00
2017-09-16T04:16:16.479Z,82.00
2017-09-16T04:18:44.071Z,81.30
2017-09-16T04:21:11.609Z,81.80
2017-09-16T04:23:39.151Z,81.40
2017-09-16T04:26:06.797Z,81.40
2017-09-16T04:28:34.399Z,81.90
2017-09-16T04:31:01.943Z,82.10
2017-09-16T04:33:29.512Z,81.60
2017-09-16T04:35:57.043Z,81.80
2017-09-16T04:38:24.576Z,82.20
2017-09-16T04:40:52.936Z,82.30
2017-09-16T04:43:21.239Z,82.80
2017-09-16T04:45:48.771Z,82.10
2017-09-16T04:48:16.465Z,82.40
2017-09-16T04:50:44.206Z,82.80
2017-09-16T04:53:11.736Z,83.10
2017-09-16T04:55:39.287Z,82.90
2017-09-16T04:58:06.821Z,83.00
2017-09-16T05:00:34.351Z,83.10
2017-09-16T05:03:02.676Z,82.00
2017-09-16T05:05:30.220Z,82.00
2017-09-16T05:07:57.751Z,82.50
2017-09-16T05:10:26.106Z,82.80
2017-09-16T05:12:53.635Z,82.80
2017-09-16T05:15:21.203Z,83.90
2017-09-16T05:17:48.756Z,83.10
2017-09-16T05:20:16.454Z,82.40
2017-09-16T05:22:43.987Z,82.30
2017-09-16T05:25:11.548Z,83.10
2017-09-16T05:27:39.083Z,83.20
2017-09-16T05:30:06.614Z,82.80
2017-09-16T05:32:34.997Z,83.00
2017-09-16T05:35:02.531Z,83.00
2017-09-16T05:37:30.831Z,83.60
2017-09-16T05:39:58.383Z,83.30
2017-09-16T05:42:26.686Z,84.30
2017-09-16T05:44:54.218Z,84.30
2017-09-16T05:47:22.556Z,84.40
2017-09-16T05:49:50.091Z,84.40
2017-09-16T05:52:18.324Z,84.20
2017-09-16T05:54:46.680Z,84.40
2017-09-16T05:57:16.368Z,84.60
2017-09-16T05:59:43.897Z,84.60
2017-09-16T06:02:11.459Z,84.50
2017-09-16T06:04:38.999Z,84.10
2017-09-16T06:07:06.551Z,84.00
2017-09-16T06:09:34.883Z,83.50
2017-09-16T06:12:02.437Z,83.40
2017-09-16T06:14:29.959Z,83.30
2017-09-16T06:16:57.539Z,83.20
2017-09-16T06:19:25.063Z,83.70
2017-09-16T06:21:53.369Z,83.40
2017-09-16T06:24:21.123Z,83.10
2017-09-16T06:26:48.845Z,83.10
2017-09-16T06:29:16.427Z,82.90
2017-09-16T06:31:43.986Z,83.60
2017-09-16T06:34:11.733Z,83.80
2017-09-16T06:36:39.268Z,83.60
2017-09-16T06:39:07.153Z,84.00
2017-09-16T06:41:34.679Z,83.70
2017-09-16T06:44:04.132Z,83.80
2017-09-16T06:46:31.769Z,83.80
2017-09-16T06:48:59.312Z,82.40
2017-09-16T06:51:26.850Z,82.30
2017-09-16T06:53:54.431Z,82.10
2017-09-16T06:56:21.962Z,81.90
2017-09-16T06:58:49.501Z,82.50
2017-09-16T07:01:17.139Z,82.00
2017-09-16T07:15:17.741Z,81.30
2017-09-16T07:17:45.349Z,81.60
2017-09-16T07:20:25.037Z,81.20
2017-09-16T07:25:25.890Z,80.80
2017-09-16T07:27:53.430Z,81.70
2017-09-16T07:30:21.077Z,82.40
2017-09-16T07:38:26.645Z,82.90
2017-09-16T07:40:54.179Z,82.30
2017-09-16T07:43:21.708Z,82.00
2017-09-16T07:45:49.344Z,80.80
2017-09-16T07:48:18.490Z,81.20
2017-09-16T07:50:46.064Z,81.10
2017-09-16T07:53:14.561Z,80.50
2017-09-16T07:55:43.460Z,80.90
2017-09-16T07:58:10.995Z,81.50
2017-09-16T08:00:38.574Z,80.90
2017-09-16T08:03:06.121Z,80.50
2017-09-16T08:05:33.660Z,80.30
2017-09-16T08:08:05.982Z,80.50
2017-09-16T08:10:33.546Z,80.50
2017-09-16T08:13:01.096Z,80.40
2017-09-16T08:15:29.456Z,81.00
2017-09-16T08:17:57.796Z,80.00
2017-09-16T08:20:25.341Z,80.00
2017-09-16T08:22:52.918Z,81.50
2017-09-16T08:25:20.464Z,81.90
2017-09-16T08:27:48.027Z,81.70
2017-09-16T08:30:17.412Z,81.80
2017-09-16T08:32:44.970Z,81.80
2017-09-16T08:35:12.531Z,81.30
2017-09-16T08:37:40.447Z,82.00
2017-09-16T08:40:07.991Z,81.20
2017-09-16T08:42:35.529Z,81.00
2017-09-16T08:45:03.074Z,81.40
2017-09-16T08:47:30.616Z,81.20
2017-09-16T08:49:58.922Z,81.30
2017-09-16T08:52:26.503Z,81.20
2017-09-16T08:54:54.067Z,81.30
2017-09-16T08:57:21.644Z,81.20
2017-09-16T08:59:49.959Z,82.00
2017-09-16T09:02:17.499Z,82.00
2017-09-16T09:04:45.866Z,81.20
2017-09-16T09:07:15.537Z,80.90
2017-09-16T09:09:43.067Z,80.90
2017-09-16T09:12:11.387Z,81.20
2017-09-16T09:14:38.983Z,81.20
2017-09-16T09:17:06.513Z,80.50
2017-09-16T09:19:34.048Z,81.00
2017-09-16T09:22:01.623Z,81.20
2017-09-16T09:24:29.154Z,80.60
2017-09-16T09:26:56.695Z,81.00
2017-09-16T09:29:25.032Z,80.30
2017-09-16T09:31:52.560Z,80.30
2017-09-16T09:34:20.685Z,80.40
2017-09-16T09:36:49.805Z,79.60
2017-09-16T09:39:17.335Z,79.70
2017-09-16T09:41:44.871Z,79.20
2017-09-16T09:44:12.499Z,80.00
2017-09-16T09:46:40.026Z,80.30
2017-09-16T09:49:07.555Z,79.80
2017-09-16T09:51:36.012Z,80.60
2017-09-16T09:54:03.544Z,80.10
2017-09-16T09:56:31.067Z,80.10
2017-09-16T09:58:59.336Z,80.00
2017-09-16T10:01:26.868Z,80.30
2017-09-16T10:03:54.426Z,81.40
2017-09-16T10:06:22.980Z,82.00
2017-09-16T10:08:56.123Z,81.60
2017-09-16T10:11:23.685Z,81.50
2017-09-16T10:13:51.219Z,81.30
2017-09-16T10:16:19.515Z,80.40
2017-09-16T10:18:47.073Z,80.40
2017-09-16T10:21:17.171Z,79.80
2017-09-16T10:23:44.711Z,79.80
2017-09-16T10:26:12.296Z,80.10
2017-09-16T10:28:39.831Z,80.00
2017-09-16T10:31:08.133Z,80.50
2017-09-16T10:33:35.687Z,80.40
2017-09-16T10:36:03.247Z,80.40
2017-09-16T10:38:30.780Z,80.00
2017-09-16T10:40:59.102Z,77.60
2017-09-16T10:43:26.627Z,77.50
2017-09-16T10:45:54.166Z,76.40
2017-09-16T10:48:21.759Z,77.50
2017-09-16T10:50:49.291Z,76.40
2017-09-16T10:53:17.599Z,72.00
2017-09-16T10:55:45.155Z,71.90
2017-09-16T10:58:13.615Z,71.90
2017-09-16T11:00:41.339Z,69.40
2017-09-16T11:03:08.938Z,68.50
2017-09-16T11:05:36.467Z,67.60
2017-09-16T11:08:04.004Z,67.40
2017-09-16T11:10:31.587Z,65.20
2017-09-16T11:12:59.116Z,63.30
2017-09-16T11:15:26.647Z,64.30
2017-09-16T11:17:54.967Z,64.00
2017-09-16T11:20:22.501Z,64.00
2017-09-16T11:22:50.023Z,63.90
2017-09-16T11:25:17.578Z,63.80
2017-09-16T11:27:45.099Z,65.70
2017-09-16T11:30:12.641Z,67.00
2017-09-16T11:32:40.237Z,66.20
2017-09-16T11:35:07.768Z,68.80
2017-09-16T11:37:35.495Z,69.10
2017-09-16T11:40:03.084Z,67.00
2017-09-16T11:42:30.616Z,68.00
2017-09-16T11:44:58.143Z,65.00
2017-09-16T11:47:25.708Z,64.20
2017-09-16T11:49:53.231Z,62.40
2017-09-16T11:52:20.755Z,63.60
2017-09-16T11:54:49.095Z,62.40
2017-09-16T11:57:16.720Z,62.40
2017-09-16T11:59:44.269Z,59.30
2017-09-16T12:02:12.253Z,57.90
2017-09-16T12:04:39.791Z,58.70
2017-09-16T12:07:07.336Z,59.50
2017-09-16T12:09:34.915Z,59.40
2017-09-16T12:12:02.455Z,58.60
2017-09-16T12:14:32.279Z,56.90
2017-09-16T12:17:00.139Z,56.90
2017-09-16T12:19:28.431Z,55.60
2017-09-16T12:21:55.976Z,55.50
2017-09-16T12:24:24.288Z,58.50
2017-09-16T12:26:52.589Z,56.80
2017-09-16T12:29:20.292Z,56.80
2017-09-16T12:31:47.943Z,56.70
2017-09-16T12:34:17.283Z,56.90
2017-09-16T12:36:44.835Z,56.80
2017-09-16T12:39:12.607Z,58.60
2017-09-16T12:41:40.609Z,60.00
2017-09-16T12:44:11.388Z,59.00
2017-09-16T12:46:39.008Z,59.50
2017-09-16T12:49:06.546Z,57.70
2017-09-16T12:51:34.836Z,55.80
2017-09-16T12:54:02.449Z,55.80
2017-09-16T12:56:30.816Z,55.90
2017-09-16T12:58:58.450Z,56.00
2017-09-16T13:01:26.014Z,57.00
2017-09-16T13:03:53.808Z,57.00
2017-09-16T13:06:22.099Z,55.60
2017-09-16T13:08:49.655Z,55.50
2017-09-16T13:11:17.956Z,56.70
2017-09-16T13:13:46.067Z,56.70
2017-09-16T13:16:24.398Z,56.80
2017-09-16T13:27:36.992Z,55.50
2017-09-16T13:30:04.571Z,55.20
2017-09-16T13:32:34.799Z,54.80
2017-09-16T13:35:02.408Z,55.00
2017-09-16T13:37:29.956Z,54.30
2017-09-16T13:39:58.128Z,55.80
2017-09-16T13:42:26.741Z,54.80
2017-09-16T13:44:55.108Z,55.00
2017-09-16T13:47:22.724Z,54.90
2017-09-16T13:49:50.367Z,53.80
2017-09-16T13:52:17.969Z,54.10
2017-09-16T13:54:45.622Z,53.20
2017-09-16T13:57:14.562Z,55.40
2017-09-16T13:59:42.978Z,57.20
2017-09-16T14:02:10.589Z,57.20
2017-09-16T14:04:38.773Z,57.00
2017-09-16T14:07:07.152Z,55.70
2017-09-16T14:09:35.531Z,56.70
2017-09-16T14:12:03.931Z,56.70
2017-09-16T14:14:31.464Z,56.70
2017-09-16T14:16:59.058Z,57.10
2017-09-16T14:19:26.657Z,56.60
2017-09-16T14:21:54.293Z,56.20
2017-09-16T14:24:21.918Z,52.20
2017-09-16T14:26:49.508Z,52.30
2017-09-16T14:29:17.109Z,55.00
2017-09-16T14:31:44.648Z,54.00
2017-09-16T14:34:12.226Z,52.10
2017-09-16T14:36:39.755Z,53.90
2017-09-16T14:39:07.296Z,54.10
2017-09-16T14:41:34.938Z,54.50
2017-09-16T17:02:12.823Z,68.90
2017-09-16T17:04:40.367Z,68.80
2017-09-16T17:07:08.661Z,68.30
2017-09-16T17:09:36.420Z,68.20
2017-09-16T17:12:03.980Z,68.00
2017-09-16T17:14:32.394Z,67.40
2017-09-16T17:17:00.005Z,67.80
2017-09-16T17:19:27.568Z,68.70
2017-09-16T17:21:55.134Z,70.00
2017-09-16T17:24:22.720Z,70.30
2017-09-16T17:26:51.035Z,70.40
2017-09-16T17:29:18.563Z,70.40
2017-09-16T17:31:46.112Z,71.40
2017-09-16T17:34:15.571Z,71.10
2017-09-16T17:36:43.174Z,71.20
2017-09-16T17:39:10.739Z,70.50
2017-09-16T17:41:38.296Z,69.90
2017-09-16T17:44:05.829Z,70.30
2017-09-16T17:46:33.440Z,71.00
2017-09-16T17:49:01.050Z,71.40
2017-09-16T17:51:28.596Z,71.80
2017-09-16T17:53:56.147Z,72.20
2017-09-16T17:56:23.685Z,72.60
2017-09-16T17:58:51.221Z,73.20
2017-09-16T18:01:18.772Z,73.00
2017-09-16T18:03:46.601Z,73.10
2017-09-16T18:06:16.268Z,73.60
2017-09-16T18:08:43.888Z,73.50
2017-09-16T18:11:11.457Z,73.40
2017-09-16T18:13:38.988Z,73.50
2017-09-16T18:16:07.352Z,74.40
2017-09-16T18:18:34.939Z,74.40
2017-09-16T18:21:02.463Z,74.40
2017-09-16T18:23:30.036Z,74.50
2017-09-16T18:25:57.584Z,74.80
2017-09-16T18:28:25.138Z,74.80
2017-09-16T18:30:52.730Z,74.70
2017-09-16T18:33:21.137Z,74.90
2017-09-16T18:35:48.738Z,74.90
2017-09-16T18:38:16.442Z,74.70
2017-09-16T18:40:44.799Z,75.40
2017-09-16T18:43:12.340Z,75.40
2017-09-16T18:45:39.936Z,75.90
2017-09-16T18:48:08.247Z,75.70
2017-09-16T18:50:36.562Z,75.50
2017-09-16T18:53:04.159Z,75.40
2017-09-16T18:55:32.578Z,76.20
2017-09-16T18:58:00.191Z,76.00
2017-09-16T19:00:27.909Z,76.20
2017-09-16T19:02:55.487Z,76.90
2017-09-16T19:05:23.388Z,76.70
2017-09-16T19:07:50.953Z,77.60
2017-09-16T19:10:18.503Z,77.00
2017-09-16T19:12:46.808Z,77.90
2017-09-16T19:15:25.396Z,77.90
2017-09-16T19:20:30.078Z,78.20
2017-09-16T19:22:57.628Z,78.50
2017-09-16T19:25:25.167Z,78.60
2017-09-16T19:27:52.772Z,78.80
2017-09-16T19:30:20.316Z,78.50
2017-09-16T19:32:47.883Z,79.00
2017-09-16T19:35:17.336Z,79.00
2017-09-16T19:37:44.872Z,79.00
2017-09-16T19:40:12.407Z,79.10
2017-09-16T19:42:39.976Z,79.20
2017-09-16T19:45:07.520Z,79.40
2017-09-16T19:47:35.063Z,79.20
2017-09-16T19:50:02.685Z,79.30
2017-09-16T19:52:30.251Z,79.20
2017-09-16T19:54:57.788Z,79.20
2017-09-16T19:57:25.399Z,79.20
2017-09-16T19:59:53.747Z,79.50
2017-09-16T20:02:22.095Z,79.70
2017-09-16T20:04:50.529Z,79.60
2017-09-16T20:07:19.440Z,79.60
2017-09-16T20:09:46.971Z,79.50
2017-09-16T20:12:15.532Z,79.40
2017-09-16T20:14:43.093Z,79.20
2017-09-16T20:17:10.700Z,78.90
2017-09-16T20:19:38.352Z,78.80
2017-09-16T20:22:05.959Z,78.90
2017-09-16T20:24:34.568Z,78.50
2017-09-16T20:27:02.144Z,78.70
2017-09-16T20:29:30.261Z,78.80
2017-09-16T20:31:58.614Z,78.80
2017-09-16T20:34:26.228Z,78.80
2017-09-16T20:36:53.779Z,78.70
2017-09-16T20:39:21.319Z,78.60
2017-09-16T20:41:48.938Z,78.50
2017-09-16T20:44:17.266Z,78.80
2017-09-16T20:46:44.836Z,78.70
2017-09-16T20:49:12.392Z,78.70
2017-09-16T20:51:39.933Z,79.10
2017-09-16T20:54:07.459Z,79.10
2017-09-16T20:56:35.800Z,78.90
2017-09-16T20:59:03.336Z,79.10
2017-09-16T21:01:30.872Z,78.80
2017-09-16T21:03:58.484Z,78.40
2017-09-16T21:06:26.019Z,78.40
2017-09-16T21:08:54.150Z,78.30
2017-09-16T21:11:23.004Z,78.50
2017-09-16T21:13:52.927Z,78.30
2017-09-16T21:16:20.480Z,78.40
2017-09-16T21:18:48.035Z,79.70
2017-09-16T21:21:17.230Z,79.60
2017-09-16T21:23:44.765Z,79.60
2017-09-16T21:26:16.724Z,79.90
2017-09-16T21:28:44.831Z,79.90
2017-09-16T21:31:12.363Z,79.90
2017-09-16T21:33:39.927Z,79.80
2017-09-16T21:36:08.243Z,79.70
2017-09-16T21:38:35.814Z,79.70
2017-09-16T21:41:03.430Z,80.10
2017-09-16T21:43:30.969Z,79.80
2017-09-16T21:45:58.539Z,79.80
2017-09-16T21:48:26.131Z,80.00
2017-09-16T21:50:53.661Z,80.70
2017-09-16T21:53:21.191Z,80.80
2017-09-16T21:55:48.758Z,81.00
2017-09-16T21:58:16.475Z,80.70
2017-09-16T22:00:44.007Z,80.60
2017-09-16T22:03:11.565Z,80.50
2017-09-16T22:05:39.171Z,80.30
2017-09-16T22:08:06.707Z,80.60
2017-09-16T22:10:34.615Z,81.00
2017-09-16T22:13:02.911Z,80.90
2017-09-16T22:15:30.465Z,80.90
2017-09-16T22:17:58.028Z,81.00
2017-09-16T22:20:25.567Z,81.00
2017-09-16T22:22:56.583Z,81.10
2017-09-16T22:25:24.159Z,81.20
2017-09-16T22:27:51.696Z,81.00
2017-09-16T22:30:19.223Z,80.80
2017-09-16T22:32:46.831Z,80.80
2017-09-16T22:35:26.145Z,81.00
2017-09-16T22:40:50.171Z,81.00
2017-09-16T22:43:17.703Z,81.70
2017-09-16T22:45:45.235Z,82.10
2017-09-16T22:48:13.752Z,82.00
2017-09-16T22:50:41.280Z,81.90
2017-09-16T22:53:08.810Z,81.80
2017-09-16T22:55:44.556Z,82.20
2017-09-16T22:58:13.771Z,81.90
2017-09-16T23:00:41.302Z,81.80
2017-09-16T23:03:08.854Z,81.90
2017-09-16T23:05:36.459Z,82.00
2017-09-16T23:08:03.992Z,81.50
2017-09-16T23:10:31.575Z,81.60
2017-09-16T23:12:59.528Z,81.50
2017-09-16T23:15:27.068Z,81.00
2017-09-16T23:17:54.622Z,80.40
2017-09-16T23:20:22.147Z,80.00
2017-09-16T23:22:49.728Z,80.50
2017-09-16T23:25:17.404Z,80.60
2017-09-16T23:27:44.952Z,80.60
2017-09-16T23:30:12.484Z,80.50
2017-09-16T23:32:40.067Z,80.40
2017-09-16T23:35:07.590Z,80.50
2017-09-16T23:37:35.120Z,80.10
2017-09-16T23:40:03.485Z,80.60
2017-09-16T23:42:31.015Z,80.60
2017-09-16T23:44:58.547Z,81.40
2017-09-16T23:47:26.112Z,80.50
2017-09-16T23:49:54.414Z,81.60
2017-09-16T23:52:21.948Z,81.50
2017-09-16T23:54:49.532Z,81.60
2017-09-16T23:57:17.073Z,81.50
2017-09-16T23:59:44.608Z,81.70
